sensor_id;sensor_type;location;lat;lon;timestamp;temperature;humidity
59881;DHT22;45751;51.380;10.326;2023-07-24T00:01:54;18.20;98.20
59881;DHT22;45751;51.380;10.326;2023-07-24T00:04:21;18.20;98.10
59881;DHT22;45751;51.380;10.326;2023-07-24T00:06:48;18.20;98.10
59881;DHT22;45751;51.380;10.326;2023-07-24T00:09:15;18.20;98.00
59881;DHT22;45751;51.380;10.326;2023-07-24T00:11:42;18.20;98.00
59881;DHT22;45751;51.380;10.326;2023-07-24T00:14:09;18.20;98.00
59881;DHT22;45751;51.380;10.326;2023-07-24T00:16:35;18.30;98.00
59881;DHT22;45751;51.380;10.326;2023-07-24T00:19:02;18.20;97.90
59881;DHT22;45751;51.380;10.326;2023-07-24T00:21:29;18.30;97.80
59881;DHT22;45751;51.380;10.326;2023-07-24T00:23:57;18.30;97.70
59881;DHT22;45751;51.380;10.326;2023-07-24T00:26:24;18.20;97.70
59881;DHT22;45751;51.380;10.326;2023-07-24T00:28:50;18.20;97.70
59881;DHT22;45751;51.380;10.326;2023-07-24T00:31:17;18.20;97.60
59881;DHT22;45751;51.380;10.326;2023-07-24T00:33:44;18.20;97.50
59881;DHT22;45751;51.380;10.326;2023-07-24T00:36:11;18.20;97.50
59881;DHT22;45751;51.380;10.326;2023-07-24T00:38:39;18.20;97.50
59881;DHT22;45751;51.380;10.326;2023-07-24T00:41:06;18.20;97.20
59881;DHT22;45751;51.380;10.326;2023-07-24T00:43:33;18.20;97.40
59881;DHT22;45751;51.380;10.326;2023-07-24T00:46:02;18.20;97.30
59881;DHT22;45751;51.380;10.326;2023-07-24T00:48:29;18.20;97.30
59881;DHT22;45751;51.380;10.326;2023-07-24T00:50:56;18.20;97.40
59881;DHT22;45751;51.380;10.326;2023-07-24T00:53:23;18.20;97.40
59881;DHT22;45751;51.380;10.326;2023-07-24T00:55:50;18.20;97.50
59881;DHT22;45751;51.380;10.326;2023-07-24T00:58:19;18.10;97.50
59881;DHT22;45751;51.380;10.326;2023-07-24T01:00:46;18.10;97.60
59881;DHT22;45751;51.380;10.326;2023-07-24T01:03:13;18.10;97.60
59881;DHT22;45751;51.380;10.326;2023-07-24T01:05:40;18.10;97.70
59881;DHT22;45751;51.380;10.326;2023-07-24T01:08:08;18.10;97.80
59881;DHT22;45751;51.380;10.326;2023-07-24T01:10:34;18.10;97.80
59881;DHT22;45751;51.380;10.326;2023-07-24T01:13:05;18.10;97.90
59881;DHT22;45751;51.380;10.326;2023-07-24T01:15:59;18.00;97.80
59881;DHT22;45751;51.380;10.326;2023-07-24T01:18:28;18.00;97.90
59881;DHT22;45751;51.380;10.326;2023-07-24T01:20:57;18.00;98.20
59881;DHT22;45751;51.380;10.326;2023-07-24T01:26:11;18.00;98.40
59881;DHT22;45751;51.380;10.326;2023-07-24T01:28:38;17.90;98.60
59881;DHT22;45751;51.380;10.326;2023-07-24T01:31:06;17.90;98.80
59881;DHT22;45751;51.380;10.326;2023-07-24T01:33:33;17.80;98.90
59881;DHT22;45751;51.380;10.326;2023-07-24T01:36:03;17.80;99.50
59881;DHT22;45751;51.380;10.326;2023-07-24T01:38:31;17.70;99.20
59881;DHT22;45751;51.380;10.326;2023-07-24T01:41:01;17.80;99.20
59881;DHT22;45751;51.380;10.326;2023-07-24T01:43:28;17.70;99.40
59881;DHT22;45751;51.380;10.326;2023-07-24T01:45:55;17.70;99.50
59881;DHT22;45751;51.380;10.326;2023-07-24T01:48:23;17.70;99.70
59881;DHT22;45751;51.380;10.326;2023-07-24T01:50:50;17.70;99.80
59881;DHT22;45751;51.380;10.326;2023-07-24T01:53:17;17.70;99.90
59881;DHT22;45751;51.380;10.326;2023-07-24T01:55:43;17.60;99.90
59881;DHT22;45751;51.380;10.326;2023-07-24T01:58:10;17.60;99.90
59881;DHT22;45751;51.380;10.326;2023-07-24T02:00:37;17.60;99.90
59881;DHT22;45751;51.380;10.326;2023-07-24T02:03:04;17.60;99.90
59881;DHT22;45751;51.380;10.326;2023-07-24T02:05:32;17.60;99.90
59881;DHT22;45751;51.380;10.326;2023-07-24T02:07:59;17.50;99.90
59881;DHT22;45751;51.380;10.326;2023-07-24T02:10:26;17.50;99.90
59881;DHT22;45751;51.380;10.326;2023-07-24T02:12:52;17.50;99.90
59881;DHT22;45751;51.380;10.326;2023-07-24T02:15:19;17.50;99.90
59881;DHT22;45751;51.380;10.326;2023-07-24T02:17:46;17.50;99.90
59881;DHT22;45751;51.380;10.326;2023-07-24T02:20:13;17.50;99.90
59881;DHT22;45751;51.380;10.326;2023-07-24T02:22:40;17.50;99.90
59881;DHT22;45751;51.380;10.326;2023-07-24T02:25:07;17.40;99.90
59881;DHT22;45751;51.380;10.326;2023-07-24T02:27:34;17.40;99.90
59881;DHT22;45751;51.380;10.326;2023-07-24T02:30:02;17.40;99.90
59881;DHT22;45751;51.380;10.326;2023-07-24T02:32:29;17.30;99.90
59881;DHT22;45751;51.380;10.326;2023-07-24T02:34:56;17.40;99.90
59881;DHT22;45751;51.380;10.326;2023-07-24T02:37:23;17.30;99.90
59881;DHT22;45751;51.380;10.326;2023-07-24T02:39:52;17.30;99.90
59881;DHT22;45751;51.380;10.326;2023-07-24T02:42:19;17.30;99.90
59881;DHT22;45751;51.380;10.326;2023-07-24T02:44:46;17.20;99.90
59881;DHT22;45751;51.380;10.326;2023-07-24T02:47:13;17.20;99.90
59881;DHT22;45751;51.380;10.326;2023-07-24T02:49:40;17.10;99.90
59881;DHT22;45751;51.380;10.326;2023-07-24T02:52:07;17.20;99.90
59881;DHT22;45751;51.380;10.326;2023-07-24T02:54:34;17.20;99.90
59881;DHT22;45751;51.380;10.326;2023-07-24T02:57:01;17.10;99.90
59881;DHT22;45751;51.380;10.326;2023-07-24T02:59:29;17.10;99.90
59881;DHT22;45751;51.380;10.326;2023-07-24T03:01:57;17.10;99.90
59881;DHT22;45751;51.380;10.326;2023-07-24T03:04:24;17.10;99.90
59881;DHT22;45751;51.380;10.326;2023-07-24T03:06:51;17.10;99.90
59881;DHT22;45751;51.380;10.326;2023-07-24T03:09:18;17.10;99.90
59881;DHT22;45751;51.380;10.326;2023-07-24T03:11:44;17.10;99.90
59881;DHT22;45751;51.380;10.326;2023-07-24T03:14:11;17.10;99.90
59881;DHT22;45751;51.380;10.326;2023-07-24T03:16:38;17.20;99.90
59881;DHT22;45751;51.380;10.326;2023-07-24T03:19:05;17.20;99.90
59881;DHT22;45751;51.380;10.326;2023-07-24T03:21:32;17.20;99.90
59881;DHT22;45751;51.380;10.326;2023-07-24T03:23:59;17.20;99.90
59881;DHT22;45751;51.380;10.326;2023-07-24T03:26:26;17.20;99.90
59881;DHT22;45751;51.380;10.326;2023-07-24T03:28:53;17.20;99.90
59881;DHT22;45751;51.380;10.326;2023-07-24T03:31:20;17.20;99.90
59881;DHT22;45751;51.380;10.326;2023-07-24T03:33:47;17.20;99.90
59881;DHT22;45751;51.380;10.326;2023-07-24T03:36:14;17.20;99.90
59881;DHT22;45751;51.380;10.326;2023-07-24T03:38:41;17.20;99.90
59881;DHT22;45751;51.380;10.326;2023-07-24T03:41:08;17.20;99.90
59881;DHT22;45751;51.380;10.326;2023-07-24T03:43:35;17.20;99.90
59881;DHT22;45751;51.380;10.326;2023-07-24T03:46:03;17.20;99.90
59881;DHT22;45751;51.380;10.326;2023-07-24T03:48:30;17.20;99.90
59881;DHT22;45751;51.380;10.326;2023-07-24T03:51:00;17.20;99.90
59881;DHT22;45751;51.380;10.326;2023-07-24T03:53:27;17.20;99.90
59881;DHT22;45751;51.380;10.326;2023-07-24T03:55:54;17.10;99.90
59881;DHT22;45751;51.380;10.326;2023-07-24T03:58:21;17.20;99.90
59881;DHT22;45751;51.380;10.326;2023-07-24T04:00:48;17.20;99.90
59881;DHT22;45751;51.380;10.326;2023-07-24T04:03:16;17.20;99.90
59881;DHT22;45751;51.380;10.326;2023-07-24T04:05:43;17.20;99.90
59881;DHT22;45751;51.380;10.326;2023-07-24T04:08:10;17.20;99.90
59881;DHT22;45751;51.380;10.326;2023-07-24T04:10:37;17.20;99.90
59881;DHT22;45751;51.380;10.326;2023-07-24T04:13:04;17.20;99.90
59881;DHT22;45751;51.380;10.326;2023-07-24T04:15:31;17.20;99.90
59881;DHT22;45751;51.380;10.326;2023-07-24T04:17:58;17.20;99.90
59881;DHT22;45751;51.380;10.326;2023-07-24T04:20:25;17.20;99.90
59881;DHT22;45751;51.380;10.326;2023-07-24T04:22:54;17.20;99.90
59881;DHT22;45751;51.380;10.326;2023-07-24T04:25:21;17.20;99.90
59881;DHT22;45751;51.380;10.326;2023-07-24T04:27:49;17.20;99.90
59881;DHT22;45751;51.380;10.326;2023-07-24T04:30:16;17.20;99.90
59881;DHT22;45751;51.380;10.326;2023-07-24T04:32:43;17.20;99.90
59881;DHT22;45751;51.380;10.326;2023-07-24T04:35:10;17.20;99.90
59881;DHT22;45751;51.380;10.326;2023-07-24T04:37:37;17.20;99.90
59881;DHT22;45751;51.380;10.326;2023-07-24T04:40:07;17.20;99.90
59881;DHT22;45751;51.380;10.326;2023-07-24T04:42:34;17.20;99.90
59881;DHT22;45751;51.380;10.326;2023-07-24T04:45:00;17.10;99.90
59881;DHT22;45751;51.380;10.326;2023-07-24T04:47:27;17.20;99.90
59881;DHT22;45751;51.380;10.326;2023-07-24T04:49:54;17.20;99.90
59881;DHT22;45751;51.380;10.326;2023-07-24T04:52:22;17.30;99.90
59881;DHT22;45751;51.380;10.326;2023-07-24T04:54:48;17.30;99.90
59881;DHT22;45751;51.380;10.326;2023-07-24T04:57:15;17.40;99.90
59881;DHT22;45751;51.380;10.326;2023-07-24T04:59:42;17.40;99.90
59881;DHT22;45751;51.380;10.326;2023-07-24T05:02:10;17.40;99.90
59881;DHT22;45751;51.380;10.326;2023-07-24T05:04:37;17.40;99.90
59881;DHT22;45751;51.380;10.326;2023-07-24T05:07:04;17.40;99.90
59881;DHT22;45751;51.380;10.326;2023-07-24T05:09:31;17.50;99.90
59881;DHT22;45751;51.380;10.326;2023-07-24T05:11:58;17.50;99.90
59881;DHT22;45751;51.380;10.326;2023-07-24T05:14:25;17.50;99.90
59881;DHT22;45751;51.380;10.326;2023-07-24T05:16:52;17.50;99.90
59881;DHT22;45751;51.380;10.326;2023-07-24T05:19:19;17.50;99.90
59881;DHT22;45751;51.380;10.326;2023-07-24T05:21:46;17.50;99.90
59881;DHT22;45751;51.380;10.326;2023-07-24T05:24:13;17.60;99.90
59881;DHT22;45751;51.380;10.326;2023-07-24T05:26:40;17.60;99.90
59881;DHT22;45751;51.380;10.326;2023-07-24T05:29:07;17.60;99.90
59881;DHT22;45751;51.380;10.326;2023-07-24T05:31:35;17.60;99.90
59881;DHT22;45751;51.380;10.326;2023-07-24T05:34:03;17.70;99.90
59881;DHT22;45751;51.380;10.326;2023-07-24T05:36:30;17.70;99.90
59881;DHT22;45751;51.380;10.326;2023-07-24T05:38:58;17.70;99.90
59881;DHT22;45751;51.380;10.326;2023-07-24T05:41:25;17.70;99.90
59881;DHT22;45751;51.380;10.326;2023-07-24T05:43:52;17.70;99.90
59881;DHT22;45751;51.380;10.326;2023-07-24T05:46:19;17.80;99.90
59881;DHT22;45751;51.380;10.326;2023-07-24T05:48:45;17.80;99.90
59881;DHT22;45751;51.380;10.326;2023-07-24T05:51:12;17.80;99.90
59881;DHT22;45751;51.380;10.326;2023-07-24T05:53:39;17.80;99.90
59881;DHT22;45751;51.380;10.326;2023-07-24T05:56:06;17.90;99.90
59881;DHT22;45751;51.380;10.326;2023-07-24T05:58:33;17.90;99.90
59881;DHT22;45751;51.380;10.326;2023-07-24T06:01:01;17.90;99.90
59881;DHT22;45751;51.380;10.326;2023-07-24T06:03:28;17.90;99.90
59881;DHT22;45751;51.380;10.326;2023-07-24T06:05:56;17.90;99.90
59881;DHT22;45751;51.380;10.326;2023-07-24T06:08:23;17.90;99.90
59881;DHT22;45751;51.380;10.326;2023-07-24T06:10:50;18.00;99.90
59881;DHT22;45751;51.380;10.326;2023-07-24T06:13:18;18.00;99.80
59881;DHT22;45751;51.380;10.326;2023-07-24T06:15:47;18.00;99.40
59881;DHT22;45751;51.380;10.326;2023-07-24T06:18:18;18.00;99.10
59881;DHT22;45751;51.380;10.326;2023-07-24T06:20:45;18.00;98.60
59881;DHT22;45751;51.380;10.326;2023-07-24T06:23:12;18.10;98.30
59881;DHT22;45751;51.380;10.326;2023-07-24T06:25:39;18.10;97.70
59881;DHT22;45751;51.380;10.326;2023-07-24T06:28:06;18.10;97.50
59881;DHT22;45751;51.380;10.326;2023-07-24T06:30:33;18.10;97.30
59881;DHT22;45751;51.380;10.326;2023-07-24T06:33:00;18.20;97.10
59881;DHT22;45751;51.380;10.326;2023-07-24T06:35:27;18.20;97.30
59881;DHT22;45751;51.380;10.326;2023-07-24T06:37:54;18.20;97.20
59881;DHT22;45751;51.380;10.326;2023-07-24T06:40:21;18.20;97.10
59881;DHT22;45751;51.380;10.326;2023-07-24T06:42:48;18.30;97.30
59881;DHT22;45751;51.380;10.326;2023-07-24T06:45:15;18.30;97.10
59881;DHT22;45751;51.380;10.326;2023-07-24T06:47:42;18.30;97.10
59881;DHT22;45751;51.380;10.326;2023-07-24T06:50:09;18.30;97.00
59881;DHT22;45751;51.380;10.326;2023-07-24T06:52:36;18.30;96.50
59881;DHT22;45751;51.380;10.326;2023-07-24T06:55:03;18.30;96.60
59881;DHT22;45751;51.380;10.326;2023-07-24T06:57:30;18.40;96.90
59881;DHT22;45751;51.380;10.326;2023-07-24T06:59:57;18.40;96.40
59881;DHT22;45751;51.380;10.326;2023-07-24T07:02:24;18.40;96.50
59881;DHT22;45751;51.380;10.326;2023-07-24T07:04:51;18.40;96.40
59881;DHT22;45751;51.380;10.326;2023-07-24T07:07:18;18.50;95.70
59881;DHT22;45751;51.380;10.326;2023-07-24T07:09:45;18.50;94.80
59881;DHT22;45751;51.380;10.326;2023-07-24T07:12:12;18.50;95.10
59881;DHT22;45751;51.380;10.326;2023-07-24T07:14:38;18.50;94.80
59881;DHT22;45751;51.380;10.326;2023-07-24T07:17:05;18.70;94.20
59881;DHT22;45751;51.380;10.326;2023-07-24T07:19:33;18.70;93.50
59881;DHT22;45751;51.380;10.326;2023-07-24T07:22:00;18.70;93.50
59881;DHT22;45751;51.380;10.326;2023-07-24T07:24:27;18.70;93.00
59881;DHT22;45751;51.380;10.326;2023-07-24T07:26:54;18.80;92.90
59881;DHT22;45751;51.380;10.326;2023-07-24T07:29:21;18.80;92.90
59881;DHT22;45751;51.380;10.326;2023-07-24T07:31:48;18.90;92.80
59881;DHT22;45751;51.380;10.326;2023-07-24T07:34:15;18.90;92.00
59881;DHT22;45751;51.380;10.326;2023-07-24T07:36:42;19.00;91.00
59881;DHT22;45751;51.380;10.326;2023-07-24T07:39:09;19.00;90.50
59881;DHT22;45751;51.380;10.326;2023-07-24T07:41:36;19.10;90.30
59881;DHT22;45751;51.380;10.326;2023-07-24T07:44:03;19.20;90.20
59881;DHT22;45751;51.380;10.326;2023-07-24T07:46:30;19.30;89.90
59881;DHT22;45751;51.380;10.326;2023-07-24T07:48:58;19.30;88.80
59881;DHT22;45751;51.380;10.326;2023-07-24T07:51:24;19.30;88.40
59881;DHT22;45751;51.380;10.326;2023-07-24T07:53:52;19.40;87.90
59881;DHT22;45751;51.380;10.326;2023-07-24T07:56:19;19.50;87.20
59881;DHT22;45751;51.380;10.326;2023-07-24T07:58:46;19.50;86.40
59881;DHT22;45751;51.380;10.326;2023-07-24T08:01:13;19.50;85.50
59881;DHT22;45751;51.380;10.326;2023-07-24T08:03:40;19.60;85.10
59881;DHT22;45751;51.380;10.326;2023-07-24T08:06:08;19.60;84.60
59881;DHT22;45751;51.380;10.326;2023-07-24T08:08:35;19.60;85.00
59881;DHT22;45751;51.380;10.326;2023-07-24T08:11:06;19.70;84.50
59881;DHT22;45751;51.380;10.326;2023-07-24T08:13:33;19.70;85.20
59881;DHT22;45751;51.380;10.326;2023-07-24T08:16:00;19.80;84.50
59881;DHT22;45751;51.380;10.326;2023-07-24T08:18:30;19.80;83.80
59881;DHT22;45751;51.380;10.326;2023-07-24T08:20:57;19.90;83.00
59881;DHT22;45751;51.380;10.326;2023-07-24T08:23:24;20.00;82.10
59881;DHT22;45751;51.380;10.326;2023-07-24T08:25:52;20.10;82.60
59881;DHT22;45751;51.380;10.326;2023-07-24T08:28:20;20.20;81.00
59881;DHT22;45751;51.380;10.326;2023-07-24T08:30:56;20.30;80.70
59881;DHT22;45751;51.380;10.326;2023-07-24T08:33:24;20.40;80.10
59881;DHT22;45751;51.380;10.326;2023-07-24T08:36:04;20.40;79.00
59881;DHT22;45751;51.380;10.326;2023-07-24T08:38:32;20.50;78.80
59881;DHT22;45751;51.380;10.326;2023-07-24T08:41:12;20.60;77.50
59881;DHT22;45751;51.380;10.326;2023-07-24T08:43:41;20.70;77.60
59881;DHT22;45751;51.380;10.326;2023-07-24T08:46:09;20.70;76.70
59881;DHT22;45751;51.380;10.326;2023-07-24T08:48:41;20.80;76.70
59881;DHT22;45751;51.380;10.326;2023-07-24T08:51:10;20.80;75.70
59881;DHT22;45751;51.380;10.326;2023-07-24T08:53:39;20.80;76.20
59881;DHT22;45751;51.380;10.326;2023-07-24T08:56:08;20.80;75.80
59881;DHT22;45751;51.380;10.326;2023-07-24T08:58:36;20.90;75.60
59881;DHT22;45751;51.380;10.326;2023-07-24T09:01:03;20.90;75.50
59881;DHT22;45751;51.380;10.326;2023-07-24T09:03:32;21.00;74.90
59881;DHT22;45751;51.380;10.326;2023-07-24T09:06:00;21.00;74.50
59881;DHT22;45751;51.380;10.326;2023-07-24T09:08:40;21.10;74.70
59881;DHT22;45751;51.380;10.326;2023-07-24T09:11:09;21.10;73.60
59881;DHT22;45751;51.380;10.326;2023-07-24T09:13:40;21.10;73.70
59881;DHT22;45751;51.380;10.326;2023-07-24T09:16:08;21.20;71.70
59881;DHT22;45751;51.380;10.326;2023-07-24T09:18:42;21.30;70.50
59881;DHT22;45751;51.380;10.326;2023-07-24T09:21:10;21.30;69.90
59881;DHT22;45751;51.380;10.326;2023-07-24T09:23:40;21.40;69.50
59881;DHT22;45751;51.380;10.326;2023-07-24T09:26:08;21.40;69.20
59881;DHT22;45751;51.380;10.326;2023-07-24T09:28:35;21.40;68.30
59881;DHT22;45751;51.380;10.326;2023-07-24T09:31:03;21.50;69.50
59881;DHT22;45751;51.380;10.326;2023-07-24T09:33:36;21.50;68.90
59881;DHT22;45751;51.380;10.326;2023-07-24T09:36:05;21.50;69.40
59881;DHT22;45751;51.380;10.326;2023-07-24T09:38:35;21.50;67.80
59881;DHT22;45751;51.380;10.326;2023-07-24T09:41:03;21.60;69.30
59881;DHT22;45751;51.380;10.326;2023-07-24T09:43:30;21.60;67.70
59881;DHT22;45751;51.380;10.326;2023-07-24T09:46:01;21.60;67.40
59881;DHT22;45751;51.380;10.326;2023-07-24T09:48:31;21.80;67.10
59881;DHT22;45751;51.380;10.326;2023-07-24T09:51:02;21.70;66.90
59881;DHT22;45751;51.380;10.326;2023-07-24T09:53:52;21.80;67.10
59881;DHT22;45751;51.380;10.326;2023-07-24T09:56:22;21.80;65.90
59881;DHT22;45751;51.380;10.326;2023-07-24T09:59:10;21.80;65.70
59881;DHT22;45751;51.380;10.326;2023-07-24T10:01:38;21.80;65.50
59881;DHT22;45751;51.380;10.326;2023-07-24T10:04:07;21.80;65.40
59881;DHT22;45751;51.380;10.326;2023-07-24T10:06:34;21.90;65.30
59881;DHT22;45751;51.380;10.326;2023-07-24T10:09:01;22.00;64.40
59881;DHT22;45751;51.380;10.326;2023-07-24T10:11:29;22.00;64.40
59881;DHT22;45751;51.380;10.326;2023-07-24T10:13:56;22.10;64.90
59881;DHT22;45751;51.380;10.326;2023-07-24T10:16:24;22.10;63.90
59881;DHT22;45751;51.380;10.326;2023-07-24T10:18:51;22.20;64.50
59881;DHT22;45751;51.380;10.326;2023-07-24T10:21:18;22.10;64.00
59881;DHT22;45751;51.380;10.326;2023-07-24T10:23:45;22.40;63.60
59881;DHT22;45751;51.380;10.326;2023-07-24T10:26:15;22.40;62.20
59881;DHT22;45751;51.380;10.326;2023-07-24T10:28:47;22.40;61.30
59881;DHT22;45751;51.380;10.326;2023-07-24T10:31:23;22.50;61.40
59881;DHT22;45751;51.380;10.326;2023-07-24T10:33:50;22.50;61.30
59881;DHT22;45751;51.380;10.326;2023-07-24T10:36:21;22.50;62.00
59881;DHT22;45751;51.380;10.326;2023-07-24T10:38:54;22.50;61.10
59881;DHT22;45751;51.380;10.326;2023-07-24T10:41:21;22.50;61.10
59881;DHT22;45751;51.380;10.326;2023-07-24T10:43:49;22.40;61.40
59881;DHT22;45751;51.380;10.326;2023-07-24T10:46:18;22.40;61.90
59881;DHT22;45751;51.380;10.326;2023-07-24T10:48:48;22.50;61.30
59881;DHT22;45751;51.380;10.326;2023-07-24T10:51:16;22.50;60.50
59881;DHT22;45751;51.380;10.326;2023-07-24T10:53:45;22.60;60.20
59881;DHT22;45751;51.380;10.326;2023-07-24T10:56:13;22.60;60.00
59881;DHT22;45751;51.380;10.326;2023-07-24T10:58:40;22.70;59.30
59881;DHT22;45751;51.380;10.326;2023-07-24T11:01:08;22.70;58.60
59881;DHT22;45751;51.380;10.326;2023-07-24T11:03:36;22.80;57.20
59881;DHT22;45751;51.380;10.326;2023-07-24T11:06:04;22.80;56.90
59881;DHT22;45751;51.380;10.326;2023-07-24T11:08:31;22.90;56.80
59881;DHT22;45751;51.380;10.326;2023-07-24T11:10:59;22.90;57.50
59881;DHT22;45751;51.380;10.326;2023-07-24T11:13:28;22.90;55.90
59881;DHT22;45751;51.380;10.326;2023-07-24T11:15:55;23.00;55.00
59881;DHT22;45751;51.380;10.326;2023-07-24T11:18:22;22.90;55.10
59881;DHT22;45751;51.380;10.326;2023-07-24T11:21:03;22.90;55.10
59881;DHT22;45751;51.380;10.326;2023-07-24T11:23:30;22.90;55.60
59881;DHT22;45751;51.380;10.326;2023-07-24T11:25:56;22.90;55.80
59881;DHT22;45751;51.380;10.326;2023-07-24T11:28:23;22.80;55.80
59881;DHT22;45751;51.380;10.326;2023-07-24T11:30:50;22.70;55.90
59881;DHT22;45751;51.380;10.326;2023-07-24T11:33:19;22.70;56.20
59881;DHT22;45751;51.380;10.326;2023-07-24T11:35:46;22.70;56.50
59881;DHT22;45751;51.380;10.326;2023-07-24T11:38:13;22.70;56.40
59881;DHT22;45751;51.380;10.326;2023-07-24T11:40:44;22.80;55.90
59881;DHT22;45751;51.380;10.326;2023-07-24T11:43:15;22.80;56.50
59881;DHT22;45751;51.380;10.326;2023-07-24T11:45:43;22.90;56.60
59881;DHT22;45751;51.380;10.326;2023-07-24T11:48:11;23.00;55.30
59881;DHT22;45751;51.380;10.326;2023-07-24T11:50:49;23.00;55.60
59881;DHT22;45751;51.380;10.326;2023-07-24T11:53:28;23.10;54.80
59881;DHT22;45751;51.380;10.326;2023-07-24T11:55:57;23.10;54.90
59881;DHT22;45751;51.380;10.326;2023-07-24T11:58:29;23.10;55.00
59881;DHT22;45751;51.380;10.326;2023-07-24T12:00:57;23.10;55.50
59881;DHT22;45751;51.380;10.326;2023-07-24T12:03:28;23.20;55.30
59881;DHT22;45751;51.380;10.326;2023-07-24T12:05:55;23.30;55.70
59881;DHT22;45751;51.380;10.326;2023-07-24T12:08:34;23.30;54.20
59881;DHT22;45751;51.380;10.326;2023-07-24T12:11:02;23.30;52.70
59881;DHT22;45751;51.380;10.326;2023-07-24T12:13:29;23.30;53.30
59881;DHT22;45751;51.380;10.326;2023-07-24T12:15:56;23.30;53.70
59881;DHT22;45751;51.380;10.326;2023-07-24T12:18:23;23.30;53.80
59881;DHT22;45751;51.380;10.326;2023-07-24T12:20:50;23.30;53.70
59881;DHT22;45751;51.380;10.326;2023-07-24T12:23:16;23.30;54.00
59881;DHT22;45751;51.380;10.326;2023-07-24T12:25:44;23.30;53.30
59881;DHT22;45751;51.380;10.326;2023-07-24T12:28:11;23.40;52.80
59881;DHT22;45751;51.380;10.326;2023-07-24T12:30:38;23.50;50.50
59881;DHT22;45751;51.380;10.326;2023-07-24T12:33:05;23.50;49.80
59881;DHT22;45751;51.380;10.326;2023-07-24T12:35:32;23.50;49.60
59881;DHT22;45751;51.380;10.326;2023-07-24T12:37:59;23.60;49.60
59881;DHT22;45751;51.380;10.326;2023-07-24T12:40:26;23.70;49.70
59881;DHT22;45751;51.380;10.326;2023-07-24T12:42:53;23.80;49.60
59881;DHT22;45751;51.380;10.326;2023-07-24T12:45:20;23.90;50.50
59881;DHT22;45751;51.380;10.326;2023-07-24T12:47:47;24.00;50.50
59881;DHT22;45751;51.380;10.326;2023-07-24T12:50:14;24.00;48.90
59881;DHT22;45751;51.380;10.326;2023-07-24T12:52:41;24.00;48.20
59881;DHT22;45751;51.380;10.326;2023-07-24T12:55:08;24.00;47.60
59881;DHT22;45751;51.380;10.326;2023-07-24T12:57:35;24.10;47.20
59881;DHT22;45751;51.380;10.326;2023-07-24T13:00:03;24.00;46.90
59881;DHT22;45751;51.380;10.326;2023-07-24T13:02:31;24.00;47.00
59881;DHT22;45751;51.380;10.326;2023-07-24T13:04:59;24.00;47.90
59881;DHT22;45751;51.380;10.326;2023-07-24T13:07:26;24.00;47.40
59881;DHT22;45751;51.380;10.326;2023-07-24T13:09:53;24.10;47.40
59881;DHT22;45751;51.380;10.326;2023-07-24T13:12:20;24.20;47.00
59881;DHT22;45751;51.380;10.326;2023-07-24T13:14:47;24.30;47.20
59881;DHT22;45751;51.380;10.326;2023-07-24T13:17:14;24.40;47.30
59881;DHT22;45751;51.380;10.326;2023-07-24T13:19:41;24.50;47.10
59881;DHT22;45751;51.380;10.326;2023-07-24T13:22:08;24.60;46.90
59881;DHT22;45751;51.380;10.326;2023-07-24T13:24:34;24.70;45.60
59881;DHT22;45751;51.380;10.326;2023-07-24T13:27:01;24.80;45.70
59881;DHT22;45751;51.380;10.326;2023-07-24T13:29:30;25.00;45.80
59881;DHT22;45751;51.380;10.326;2023-07-24T13:31:57;25.10;45.60
59881;DHT22;45751;51.380;10.326;2023-07-24T13:34:24;25.20;45.40
59881;DHT22;45751;51.380;10.326;2023-07-24T13:36:51;25.30;45.40
59881;DHT22;45751;51.380;10.326;2023-07-24T13:39:19;25.30;45.20
59881;DHT22;45751;51.380;10.326;2023-07-24T13:41:46;25.20;44.90
59881;DHT22;45751;51.380;10.326;2023-07-24T13:44:13;25.10;45.60
59881;DHT22;45751;51.380;10.326;2023-07-24T13:46:40;25.00;44.70
59881;DHT22;45751;51.380;10.326;2023-07-24T13:49:07;25.00;45.50
59881;DHT22;45751;51.380;10.326;2023-07-24T13:51:34;25.00;45.60
59881;DHT22;45751;51.380;10.326;2023-07-24T13:54:01;25.10;45.00
59881;DHT22;45751;51.380;10.326;2023-07-24T13:56:29;25.00;45.70
59881;DHT22;45751;51.380;10.326;2023-07-24T13:59:00;25.00;46.00
59881;DHT22;45751;51.380;10.326;2023-07-24T14:01:27;25.10;46.30
59881;DHT22;45751;51.380;10.326;2023-07-24T14:03:54;25.20;45.50
59881;DHT22;45751;51.380;10.326;2023-07-24T14:06:21;25.20;45.20
59881;DHT22;45751;51.380;10.326;2023-07-24T14:08:48;25.20;46.10
59881;DHT22;45751;51.380;10.326;2023-07-24T14:11:15;25.20;45.70
59881;DHT22;45751;51.380;10.326;2023-07-24T14:13:42;25.20;45.80
59881;DHT22;45751;51.380;10.326;2023-07-24T14:16:09;25.40;46.10
59881;DHT22;45751;51.380;10.326;2023-07-24T14:18:37;25.50;45.50
59881;DHT22;45751;51.380;10.326;2023-07-24T14:21:04;25.60;45.50
59881;DHT22;45751;51.380;10.326;2023-07-24T14:23:30;25.80;45.70
59881;DHT22;45751;51.380;10.326;2023-07-24T14:25:57;25.90;46.10
59881;DHT22;45751;51.380;10.326;2023-07-24T14:28:24;26.20;44.80
59881;DHT22;45751;51.380;10.326;2023-07-24T14:30:51;26.20;44.30
59881;DHT22;45751;51.380;10.326;2023-07-24T14:33:18;26.20;43.80
59881;DHT22;45751;51.380;10.326;2023-07-24T14:35:45;26.00;43.20
59881;DHT22;45751;51.380;10.326;2023-07-24T14:38:12;25.80;43.90
59881;DHT22;45751;51.380;10.326;2023-07-24T14:40:39;25.60;43.80
59881;DHT22;45751;51.380;10.326;2023-07-24T14:43:06;25.60;44.40
59881;DHT22;45751;51.380;10.326;2023-07-24T14:45:34;25.50;44.40
59881;DHT22;45751;51.380;10.326;2023-07-24T14:48:01;25.40;44.50
59881;DHT22;45751;51.380;10.326;2023-07-24T14:50:28;25.30;44.80
59881;DHT22;45751;51.380;10.326;2023-07-24T14:52:55;25.20;45.10
59881;DHT22;45751;51.380;10.326;2023-07-24T14:55:22;25.10;45.40
59881;DHT22;45751;51.380;10.326;2023-07-24T14:57:49;25.00;45.20
59881;DHT22;45751;51.380;10.326;2023-07-24T15:00:16;24.80;45.40
59881;DHT22;45751;51.380;10.326;2023-07-24T15:02:43;24.70;45.80
59881;DHT22;45751;51.380;10.326;2023-07-24T15:05:10;24.60;46.20
59881;DHT22;45751;51.380;10.326;2023-07-24T15:07:37;24.50;46.30
59881;DHT22;45751;51.380;10.326;2023-07-24T15:10:05;24.40;46.60
59881;DHT22;45751;51.380;10.326;2023-07-24T15:12:32;24.40;47.10
59881;DHT22;45751;51.380;10.326;2023-07-24T15:14:59;24.30;47.60
59881;DHT22;45751;51.380;10.326;2023-07-24T15:17:26;24.20;47.90
59881;DHT22;45751;51.380;10.326;2023-07-24T15:19:53;24.10;49.10
59881;DHT22;45751;51.380;10.326;2023-07-24T15:22:20;23.80;51.50